createdAt,value
2022-10-09T00:01:11.867Z,70.60
2022-10-09T00:03:41.992Z,70.48
2022-10-09T00:06:13.779Z,70.51
2022-10-09T00:08:43.844Z,70.66
2022-10-09T00:11:14.077Z,70.78
2022-10-09T00:13:42.182Z,70.78
2022-10-09T00:16:12.632Z,70.69
2022-10-09T00:18:41.430Z,70.59
2022-10-09T00:21:20.496Z,71.09
2022-10-09T00:23:49.515Z,71.00
2022-10-09T00:26:18.323Z,71.10
2022-10-09T00:28:47.071Z,71.25
2022-10-09T00:31:16.146Z,70.84
2022-10-09T00:33:44.509Z,71.20
2022-10-09T00:36:14.721Z,70.91
2022-10-09T00:38:44.380Z,71.07
2022-10-09T00:41:16.182Z,70.95
2022-10-09T00:43:47.717Z,70.65
2022-10-09T00:46:35.595Z,70.63
2022-10-09T00:49:16.890Z,70.35
2022-10-09T00:51:46.840Z,70.05
2022-10-09T00:54:18.400Z,69.88
2022-10-09T00:56:46.766Z,70.14
2022-10-09T00:59:15.522Z,70.02
2022-10-09T01:01:43.945Z,69.79
2022-10-09T01:04:12.190Z,69.88
2022-10-09T01:06:59.682Z,70.14
2022-10-09T01:09:37.158Z,70.06
2022-10-09T01:12:13.693Z,69.98
2022-10-09T01:14:48.048Z,70.02
2022-10-09T01:17:25.905Z,69.84
2022-10-09T01:20:23.199Z,69.80
2022-10-09T01:23:04.898Z,69.62
2022-10-09T01:25:38.371Z,69.58
2022-10-09T01:28:08.903Z,69.67
2022-10-09T01:30:38.217Z,69.72
2022-10-09T01:33:07.214Z,69.92
2022-10-09T01:35:36.086Z,70.03
2022-10-09T01:38:05.733Z,69.89
2022-10-09T01:40:34.059Z,69.90
2022-10-09T01:43:02.619Z,69.73
2022-10-09T01:45:40.880Z,70.08
2022-10-09T01:48:13.696Z,69.88
2022-10-09T01:50:45.733Z,69.89
2022-10-09T01:53:19.615Z,69.78
2022-10-09T01:55:52.103Z,69.66
2022-10-09T01:58:25.175Z,69.55
2022-10-09T02:01:01.684Z,69.57
2022-10-09T02:03:31.848Z,69.84
2022-10-09T02:06:01.519Z,69.80
2022-10-09T02:08:31.896Z,69.68
2022-10-09T02:11:02.925Z,70.09
2022-10-09T02:13:31.927Z,69.86
2022-10-09T02:16:07.059Z,69.92
2022-10-09T02:18:41.067Z,69.82
2022-10-09T02:21:14.340Z,70.13
2022-10-09T02:23:44.714Z,69.82
2022-10-09T02:26:14.010Z,70.08
2022-10-09T02:28:45.794Z,70.09
2022-10-09T02:31:22.220Z,70.09
2022-10-09T02:33:56.922Z,70.08
2022-10-09T02:36:25.327Z,70.00
2022-10-09T02:38:53.679Z,69.96
2022-10-09T02:41:22.483Z,69.70
2022-10-09T02:43:50.832Z,69.89
2022-10-09T02:46:20.684Z,69.76
2022-10-09T02:48:48.933Z,70.06
2022-10-09T02:51:17.588Z,70.11
2022-10-09T02:53:46.141Z,70.14
2022-10-09T02:56:14.526Z,70.07
2022-10-09T02:58:42.746Z,70.18
2022-10-09T03:01:10.822Z,70.16
2022-10-09T03:03:40.357Z,70.06
2022-10-09T03:06:11.375Z,69.92
2022-10-09T03:08:42.263Z,69.79
2022-10-09T03:11:11.133Z,69.69
2022-10-09T03:13:40.295Z,69.24
2022-10-09T03:16:10.379Z,68.72
2022-10-09T03:18:40.622Z,68.57
2022-10-09T03:21:10.394Z,67.62
2022-10-09T03:23:38.869Z,66.86
2022-10-09T03:26:09.579Z,65.67
2022-10-09T03:28:38.895Z,64.87
2022-10-09T03:31:07.614Z,64.31
2022-10-09T03:33:36.682Z,63.77
2022-10-09T03:36:09.699Z,63.06
2022-10-09T03:38:37.880Z,62.53
2022-10-09T03:41:06.595Z,62.19
2022-10-09T03:43:35.685Z,61.81
2022-10-09T03:46:07.893Z,61.62
2022-10-09T03:48:36.601Z,61.27
2022-10-09T03:51:06.506Z,60.73
2022-10-09T03:53:34.825Z,60.65
2022-10-09T03:56:02.931Z,60.57
2022-10-09T03:58:31.146Z,60.36
2022-10-09T04:00:59.384Z,60.50
2022-10-09T04:03:28.184Z,59.84
2022-10-09T04:05:56.336Z,59.71
2022-10-09T04:08:25.947Z,59.46
2022-10-09T04:10:58.457Z,59.11
2022-10-09T04:13:26.687Z,58.93
2022-10-09T04:15:56.016Z,58.87
2022-10-09T04:18:24.736Z,58.66
2022-10-09T04:20:53.915Z,58.79
2022-10-09T04:23:27.916Z,58.59
2022-10-09T04:25:59.619Z,58.49
2022-10-09T04:28:28.649Z,58.28
2022-10-09T04:30:57.485Z,58.42
2022-10-09T04:33:26.164Z,58.29
2022-10-09T04:35:56.038Z,58.08
2022-10-09T04:38:25.300Z,57.82
2022-10-09T04:41:02.858Z,57.91
2022-10-09T04:43:31.827Z,57.86
2022-10-09T04:46:00.458Z,57.51
2022-10-09T04:48:28.647Z,57.49
2022-10-09T04:50:56.823Z,57.29
2022-10-09T04:53:24.951Z,56.86
2022-10-09T04:55:53.175Z,57.08
2022-10-09T04:58:22.712Z,56.96
2022-10-09T05:00:50.990Z,56.94
2022-10-09T05:03:19.226Z,57.00
2022-10-09T05:05:47.730Z,57.29
2022-10-09T05:08:15.838Z,56.71
2022-10-09T05:10:44.072Z,56.40
2022-10-09T05:13:12.344Z,56.28
2022-10-09T05:15:43.935Z,56.04
2022-10-09T05:18:12.182Z,55.13
2022-10-09T05:20:42.714Z,54.65
2022-10-09T05:23:10.812Z,54.74
2022-10-09T05:25:39.130Z,54.81
2022-10-09T05:28:07.527Z,55.32
2022-10-09T05:30:36.102Z,55.34
2022-10-09T05:33:05.657Z,55.14
2022-10-09T05:35:33.848Z,55.19
2022-10-09T05:38:01.982Z,55.15
2022-10-09T05:40:30.159Z,55.18
2022-10-09T05:43:00.385Z,54.85
2022-10-09T05:45:28.771Z,54.33
2022-10-09T05:47:56.918Z,53.03
2022-10-09T05:50:26.548Z,53.10
2022-10-09T05:52:55.000Z,52.99
2022-10-09T05:55:23.500Z,53.17
2022-10-09T05:57:51.636Z,53.05
2022-10-09T06:00:19.905Z,52.43
2022-10-09T06:02:48.302Z,52.87
2022-10-09T06:05:17.097Z,52.45
2022-10-09T06:07:47.162Z,50.71
2022-10-09T06:10:15.641Z,49.55
2022-10-09T06:12:43.763Z,48.60
2022-10-09T06:15:12.211Z,47.95
2022-10-09T06:17:40.501Z,48.48
2022-10-09T06:20:09.135Z,49.33
2022-10-09T06:22:37.238Z,49.58
2022-10-09T06:25:07.806Z,49.32
2022-10-09T06:27:35.925Z,49.86
2022-10-09T06:30:04.190Z,50.60
2022-10-09T06:32:33.255Z,50.85
2022-10-09T06:35:01.346Z,51.00
2022-10-09T06:37:29.525Z,51.14
2022-10-09T06:39:57.610Z,51.64
2022-10-09T06:42:27.120Z,51.24
2022-10-09T06:44:55.264Z,51.21
2022-10-09T06:47:23.368Z,51.56
2022-10-09T06:49:51.717Z,52.18
2022-10-09T06:52:19.818Z,51.48
2022-10-09T06:54:47.946Z,51.52
2022-10-09T06:57:16.019Z,51.16
2022-10-09T06:59:45.830Z,51.05
2022-10-09T07:02:13.969Z,50.37
2022-10-09T07:04:42.148Z,49.30
2022-10-09T07:07:10.244Z,50.35
2022-10-09T07:09:38.606Z,49.87
2022-10-09T07:12:06.753Z,49.52
2022-10-09T07:14:34.949Z,48.79
2022-10-09T07:17:05.855Z,48.53
2022-10-09T07:19:33.906Z,48.05
2022-10-09T07:22:02.085Z,48.35
2022-10-09T07:24:30.379Z,47.92
2022-10-09T07:26:58.490Z,46.86
2022-10-09T07:29:26.609Z,47.23
2022-10-09T07:31:54.813Z,45.90
2022-10-09T07:34:24.476Z,45.26
2022-10-09T07:36:54.462Z,45.09
2022-10-09T07:39:23.523Z,44.49
2022-10-09T07:41:52.901Z,44.13
2022-10-09T07:44:21.012Z,43.22
2022-10-09T07:46:51.794Z,42.64
2022-10-09T07:49:20.065Z,42.56
2022-10-09T07:51:51.879Z,42.57
2022-10-09T07:54:20.029Z,42.27
2022-10-09T07:56:48.069Z,42.05
2022-10-09T07:59:17.345Z,41.86
2022-10-09T08:01:45.887Z,41.47
2022-10-09T08:04:14.001Z,41.38
2022-10-09T08:06:43.420Z,42.08
2022-10-09T08:09:13.034Z,40.88
2022-10-09T08:11:41.269Z,40.79
2022-10-09T08:14:16.749Z,42.06
2022-10-09T08:16:47.539Z,41.22
2022-10-09T08:19:15.703Z,40.99
2022-10-09T08:21:43.791Z,38.96
2022-10-09T08:24:13.545Z,40.28
2022-10-09T08:26:42.541Z,40.41
2022-10-09T08:29:14.140Z,40.51
2022-10-09T08:31:42.382Z,39.78
2022-10-09T08:34:10.696Z,40.12
2022-10-09T08:36:38.822Z,39.91
2022-10-09T08:39:07.275Z,40.07
2022-10-09T08:41:44.387Z,39.59
2022-10-09T08:44:16.896Z,39.09
2022-10-09T08:46:57.904Z,39.17
2022-10-09T08:49:32.258Z,39.24
2022-10-09T08:52:13.155Z,39.61
2022-10-09T08:54:41.501Z,39.36
2022-10-09T08:57:15.884Z,40.17
2022-10-09T08:59:44.818Z,39.59
2022-10-09T09:02:33.182Z,38.85
2022-10-09T09:05:12.535Z,40.10
2022-10-09T09:07:47.550Z,39.93
2022-10-09T09:10:23.604Z,39.74
2022-10-09T09:12:58.253Z,39.41
2022-10-09T09:15:41.301Z,39.32
2022-10-09T09:18:24.153Z,40.19
2022-10-09T09:20:54.721Z,39.47
2022-10-09T09:23:27.496Z,39.91
2022-10-09T09:25:55.648Z,39.60
2022-10-09T09:28:29.640Z,38.89
2022-10-09T09:31:01.987Z,38.76
2022-10-09T09:33:44.410Z,38.62
2022-10-09T09:36:25.121Z,38.91
2022-10-09T09:39:36.288Z,39.65
2022-10-09T09:41:45.095Z,38.93
2022-10-09T09:44:16.508Z,39.05
2022-10-09T09:46:47.571Z,40.29
2022-10-09T09:49:20.300Z,39.14
2022-10-09T09:51:50.973Z,39.47
2022-10-09T09:54:22.588Z,39.13
2022-10-09T09:57:12.110Z,39.24
2022-10-09T09:59:44.887Z,38.93
2022-10-09T10:02:15.549Z,39.29
2022-10-09T10:04:55.542Z,39.47
2022-10-09T10:07:32.135Z,38.83
2022-10-09T10:10:05.577Z,38.94
2022-10-09T10:12:34.250Z,39.66
2022-10-09T10:15:07.064Z,39.98
2022-10-09T10:17:36.720Z,40.02
2022-10-09T10:20:07.977Z,39.88
2022-10-09T10:22:37.189Z,39.29
2022-10-09T10:25:06.386Z,39.90
2022-10-09T10:27:39.311Z,39.21
2022-10-09T10:30:15.184Z,39.72
2022-10-09T10:32:52.034Z,40.23
2022-10-09T10:35:25.070Z,39.84
2022-10-09T10:38:00.139Z,40.23
2022-10-09T10:40:33.027Z,40.88
2022-10-09T10:43:21.191Z,41.04
2022-10-09T10:46:03.886Z,40.90
2022-10-09T10:48:34.957Z,41.35
2022-10-09T10:51:19.050Z,41.79
2022-10-09T10:54:01.018Z,42.14
2022-10-09T10:56:32.402Z,42.48
2022-10-09T10:59:24.437Z,44.20
2022-10-09T11:02:02.621Z,45.28
2022-10-09T11:04:45.633Z,45.08
2022-10-09T11:07:22.230Z,44.94
2022-10-09T11:10:02.298Z,44.65
2022-10-09T11:12:54.543Z,45.71
2022-10-09T11:15:34.381Z,46.76
2022-10-09T11:18:22.438Z,47.40
2022-10-09T11:21:04.086Z,43.69
2022-10-09T11:23:46.688Z,43.20
2022-10-09T11:26:25.751Z,40.78
2022-10-09T11:28:59.447Z,40.88
2022-10-09T11:31:31.687Z,40.99
2022-10-09T11:34:07.346Z,40.63
2022-10-09T11:36:41.449Z,40.66
2022-10-09T11:39:15.630Z,41.07
2022-10-09T11:41:46.707Z,41.53
2022-10-09T11:44:34.174Z,40.66
2022-10-09T11:47:09.962Z,40.89
2022-10-09T11:49:51.792Z,40.49
2022-10-09T11:52:29.892Z,45.50
2022-10-09T11:55:09.674Z,46.92
2022-10-09T11:57:37.801Z,47.41
2022-10-09T12:00:08.581Z,46.89
2022-10-09T12:02:38.327Z,47.26
2022-10-09T12:05:20.211Z,47.50
2022-10-09T12:07:48.499Z,46.39
2022-10-09T12:10:29.066Z,48.65
2022-10-09T12:12:59.939Z,47.94
2022-10-09T12:15:37.004Z,48.06
2022-10-09T12:18:17.888Z,49.62
2022-10-09T12:20:51.220Z,49.51
2022-10-09T12:23:27.075Z,52.59
2022-10-09T12:25:57.839Z,53.74
2022-10-09T12:28:30.621Z,51.82
2022-10-09T12:31:01.813Z,52.08
2022-10-09T12:33:34.986Z,52.38
2022-10-09T12:36:12.795Z,52.81
2022-10-09T12:38:41.019Z,52.69
2022-10-09T12:41:20.086Z,52.40
2022-10-09T12:43:49.664Z,51.98
2022-10-09T12:46:28.149Z,51.53
2022-10-09T12:48:56.818Z,51.85
2022-10-09T12:51:28.287Z,52.15
2022-10-09T12:53:56.852Z,51.41
2022-10-09T12:56:29.278Z,51.63
2022-10-09T12:58:59.840Z,50.78
2022-10-09T13:01:28.377Z,50.99
2022-10-09T13:03:58.786Z,49.19
2022-10-09T13:06:31.944Z,49.92
2022-10-09T13:09:03.482Z,49.89
2022-10-09T13:11:38.149Z,50.04
2022-10-09T13:14:06.505Z,49.66
2022-10-09T13:16:42.069Z,50.53
2022-10-09T13:19:24.561Z,51.53
2022-10-09T13:22:20.043Z,53.46
2022-10-09T13:24:48.248Z,53.67
2022-10-09T13:27:19.438Z,54.00
2022-10-09T13:29:48.482Z,54.23
2022-10-09T13:32:18.294Z,51.87
2022-10-09T13:34:47.900Z,51.58
2022-10-09T13:37:20.331Z,50.72
2022-10-09T13:39:48.512Z,50.34
2022-10-09T13:42:17.594Z,49.96
2022-10-09T13:44:45.743Z,50.92
2022-10-09T13:47:13.833Z,50.87
2022-10-09T13:49:42.162Z,56.01
2022-10-09T13:52:10.623Z,58.20
2022-10-09T13:54:40.207Z,58.78
2022-10-09T13:57:09.138Z,61.48
2022-10-09T13:59:38.043Z,61.00
2022-10-09T14:02:06.394Z,60.22
2022-10-09T14:04:34.568Z,58.93
2022-10-09T14:07:02.807Z,57.76
2022-10-09T14:09:31.336Z,58.22
2022-10-09T14:12:06.645Z,58.70
2022-10-09T14:14:34.813Z,59.97
2022-10-09T14:17:03.009Z,60.32
2022-10-09T14:19:31.176Z,60.09
2022-10-09T14:22:00.671Z,59.76
2022-10-09T14:24:29.288Z,60.32
2022-10-09T14:26:57.484Z,60.63
2022-10-09T14:29:27.041Z,62.38
2022-10-09T14:31:55.183Z,63.23
2022-10-09T14:34:23.481Z,63.39
2022-10-09T14:36:52.456Z,63.28
2022-10-09T14:39:20.607Z,65.29
2022-10-09T14:41:49.231Z,66.54
2022-10-09T14:44:17.542Z,68.13
2022-10-09T14:46:49.584Z,69.21
2022-10-09T14:49:17.798Z,69.84
2022-10-09T14:51:46.552Z,69.89
2022-10-09T14:54:15.294Z,69.46
2022-10-09T14:56:43.687Z,68.39
2022-10-09T14:59:13.630Z,68.31
2022-10-09T15:01:41.808Z,68.99
2022-10-09T15:04:11.546Z,68.71
2022-10-09T15:06:40.138Z,68.10
2022-10-09T15:09:09.018Z,68.56
2022-10-09T15:11:37.852Z,69.38
2022-10-09T15:14:06.483Z,69.62
2022-10-09T15:16:34.768Z,70.15
2022-10-09T15:19:04.658Z,70.73
2022-10-09T15:21:37.407Z,71.17
2022-10-09T15:24:06.327Z,71.68
2022-10-09T15:26:36.809Z,72.11
2022-10-09T15:29:06.804Z,72.16
2022-10-09T15:31:36.652Z,70.96
2022-10-09T15:34:06.364Z,71.27
2022-10-09T15:36:39.928Z,71.75
2022-10-09T15:39:09.160Z,70.79
2022-10-09T15:41:39.588Z,68.69
2022-10-09T15:44:13.982Z,68.75
2022-10-09T15:46:42.059Z,68.77
2022-10-09T15:49:10.477Z,69.39
2022-10-09T15:51:40.622Z,67.89
2022-10-09T15:54:08.703Z,68.47
2022-10-09T15:56:39.902Z,68.67
2022-10-09T15:59:10.705Z,68.83
2022-10-09T16:01:38.954Z,67.90
2022-10-09T16:04:07.225Z,68.09
2022-10-09T16:06:35.394Z,68.21
2022-10-09T16:09:05.091Z,68.26
2022-10-09T16:11:34.766Z,66.58
2022-10-09T16:14:04.420Z,64.64
2022-10-09T16:16:32.541Z,66.92
2022-10-09T16:19:01.581Z,66.35
2022-10-09T16:21:30.578Z,62.54
2022-10-09T16:24:00.183Z,61.28
2022-10-09T16:26:30.576Z,60.50
2022-10-09T16:29:00.202Z,59.75
2022-10-09T16:31:31.373Z,59.61
2022-10-09T16:34:00.055Z,61.33
2022-10-09T16:36:28.815Z,61.33
2022-10-09T16:38:58.220Z,61.20
2022-10-09T16:41:27.196Z,61.64
2022-10-09T16:43:59.984Z,61.96
2022-10-09T16:46:30.381Z,61.74
2022-10-09T16:48:59.911Z,60.88
2022-10-09T16:51:30.226Z,61.03
2022-10-09T16:54:00.815Z,60.79
2022-10-09T16:56:30.906Z,61.50
2022-10-09T16:59:03.271Z,61.46
2022-10-09T17:01:32.330Z,61.81
2022-10-09T17:04:01.792Z,62.28
2022-10-09T17:06:29.925Z,63.79
2022-10-09T17:08:59.850Z,64.81
2022-10-09T17:11:29.771Z,65.23
2022-10-09T17:13:58.535Z,66.80
2022-10-09T17:16:30.646Z,67.04
2022-10-09T17:18:58.984Z,66.99
2022-10-09T17:21:31.014Z,67.56
2022-10-09T17:24:07.726Z,67.73
2022-10-09T17:26:36.657Z,68.11
2022-10-09T17:29:05.437Z,68.58
2022-10-09T17:31:35.725Z,68.69
2022-10-09T17:34:05.620Z,69.63
2022-10-09T17:36:37.732Z,68.64
2022-10-09T17:39:08.373Z,68.07
2022-10-09T17:41:37.100Z,67.80
2022-10-09T17:44:05.843Z,66.67
2022-10-09T17:46:35.305Z,67.06
2022-10-09T17:49:03.506Z,67.27
2022-10-09T17:51:33.817Z,68.16
2022-10-09T17:54:06.931Z,68.09
2022-10-09T17:56:37.817Z,68.60
2022-10-09T17:59:06.395Z,69.08
2022-10-09T18:01:36.980Z,69.27
2022-10-09T18:04:05.637Z,69.99
2022-10-09T18:06:36.420Z,70.42
2022-10-09T18:09:05.227Z,70.97
2022-10-09T18:11:35.858Z,70.26
2022-10-09T18:14:04.067Z,70.14
2022-10-09T18:16:37.871Z,70.54
2022-10-09T18:19:09.694Z,70.82
2022-10-09T18:21:40.013Z,70.19
2022-10-09T18:24:08.235Z,70.15
2022-10-09T18:26:36.453Z,70.18
2022-10-09T18:29:05.870Z,70.59
2022-10-09T18:31:35.204Z,70.38
2022-10-09T18:34:03.400Z,70.32
2022-10-09T18:36:34.814Z,70.47
2022-10-09T18:39:05.821Z,70.68
2022-10-09T18:41:34.168Z,70.54
2022-10-09T18:44:03.065Z,69.87
2022-10-09T18:46:37.202Z,69.99
2022-10-09T18:49:09.659Z,70.12
2022-10-09T18:51:40.959Z,70.50
2022-10-09T18:54:13.233Z,70.51
2022-10-09T18:56:44.211Z,70.57
2022-10-09T18:59:15.143Z,70.34
2022-10-09T19:01:43.236Z,70.48
2022-10-09T19:04:11.702Z,70.64
2022-10-09T19:06:41.299Z,70.34
2022-10-09T19:09:09.332Z,70.19
2022-10-09T19:11:37.444Z,69.65
2022-10-09T19:14:05.837Z,69.77
2022-10-09T19:16:37.017Z,69.75
2022-10-09T19:19:05.445Z,70.09
2022-10-09T19:21:33.581Z,69.94
2022-10-09T19:24:03.558Z,70.12
2022-10-09T19:26:33.068Z,70.42
2022-10-09T19:29:01.689Z,69.99
2022-10-09T19:31:29.757Z,69.81
2022-10-09T19:34:00.793Z,69.67
2022-10-09T19:36:28.930Z,70.09
2022-10-09T19:38:57.306Z,70.18
2022-10-09T19:41:26.908Z,70.48
2022-10-09T19:43:55.149Z,70.52
2022-10-09T19:46:23.796Z,70.56
2022-10-09T19:48:52.228Z,70.85
2022-10-09T19:51:22.221Z,70.60
2022-10-09T19:53:52.120Z,70.42
2022-10-09T19:56:22.337Z,70.44
2022-10-09T19:58:52.385Z,69.98
2022-10-09T20:01:22.561Z,69.95
2022-10-09T20:03:55.558Z,69.87
2022-10-09T20:06:23.636Z,70.06
2022-10-09T20:08:51.997Z,70.18
2022-10-09T20:11:21.403Z,70.98
2022-10-09T20:13:55.708Z,72.41
2022-10-09T20:16:25.976Z,72.59
2022-10-09T20:18:55.964Z,71.73
2022-10-09T20:21:24.112Z,71.25
2022-10-09T20:23:52.215Z,67.92
2022-10-09T20:26:22.664Z,65.97
2022-10-09T20:28:53.947Z,64.71
2022-10-09T20:31:24.265Z,63.52
2022-10-09T20:33:53.615Z,62.61
2022-10-09T20:36:25.357Z,62.07
2022-10-09T20:38:56.565Z,61.32
2022-10-09T20:41:24.734Z,60.73
2022-10-09T20:43:55.687Z,59.62
2022-10-09T20:46:25.353Z,58.98
2022-10-09T20:48:53.931Z,58.56
2022-10-09T20:51:23.115Z,57.80
2022-10-09T20:53:55.847Z,58.05
2022-10-09T20:56:26.317Z,57.73
2022-10-09T20:58:56.044Z,57.32
2022-10-09T21:01:24.789Z,57.66
2022-10-09T21:03:53.490Z,57.85
2022-10-09T21:06:23.217Z,57.43
2022-10-09T21:08:51.646Z,56.75
2022-10-09T21:11:20.315Z,56.82
2022-10-09T21:13:48.882Z,56.76
2022-10-09T21:16:21.225Z,56.60
2022-10-09T21:18:55.045Z,56.46
2022-10-09T21:21:23.232Z,56.58
2022-10-09T21:23:52.254Z,56.46
2022-10-09T21:26:21.876Z,56.82
2022-10-09T21:28:52.447Z,56.95
2022-10-09T21:31:28.488Z,57.28
2022-10-09T21:33:57.411Z,57.50
2022-10-09T21:36:33.864Z,58.37
2022-10-09T21:39:02.292Z,59.26
2022-10-09T21:41:30.449Z,59.84
2022-10-09T21:43:58.598Z,60.50
2022-10-09T21:46:28.414Z,61.07
2022-10-09T21:48:56.753Z,62.38
2022-10-09T21:51:25.122Z,63.02
2022-10-09T21:53:54.747Z,63.59
2022-10-09T21:56:23.692Z,64.39
2022-10-09T21:58:52.286Z,64.95
2022-10-09T22:01:20.479Z,65.70
2022-10-09T22:03:49.975Z,66.25
2022-10-09T22:06:19.496Z,66.75
2022-10-09T22:08:48.033Z,67.40
2022-10-09T22:11:16.924Z,67.89
2022-10-09T22:13:45.177Z,68.43
2022-10-09T22:16:15.179Z,69.10
2022-10-09T22:18:43.578Z,69.83
2022-10-09T22:21:15.132Z,70.38
2022-10-09T22:23:43.609Z,70.73
2022-10-09T22:26:14.334Z,71.09
2022-10-09T22:28:42.869Z,71.93
2022-10-09T22:31:15.427Z,72.60
2022-10-09T22:33:43.576Z,72.86
2022-10-09T22:36:15.644Z,73.57
2022-10-09T22:38:44.912Z,74.20
2022-10-09T22:41:15.346Z,74.30
2022-10-09T22:43:45.812Z,74.51
2022-10-09T22:46:15.893Z,74.77
2022-10-09T22:48:44.740Z,75.04
2022-10-09T22:51:16.345Z,75.31
2022-10-09T22:53:45.486Z,75.42
2022-10-09T22:56:17.660Z,75.33
2022-10-09T22:58:46.737Z,75.68
2022-10-09T23:01:18.287Z,75.93
2022-10-09T23:03:46.605Z,76.17
2022-10-09T23:06:18.226Z,76.19
2022-10-09T23:08:48.614Z,76.45
2022-10-09T23:11:18.308Z,76.31
2022-10-09T23:13:47.330Z,76.85
2022-10-09T23:16:16.317Z,76.85
2022-10-09T23:18:45.280Z,76.81
2022-10-09T23:21:17.628Z,77.05
2022-10-09T23:23:46.340Z,77.19
2022-10-09T23:26:16.598Z,77.27
2022-10-09T23:28:45.594Z,77.78
2022-10-09T23:31:15.146Z,78.09
2022-10-09T23:33:45.024Z,78.19
2022-10-09T23:36:14.939Z,77.95
2022-10-09T23:38:45.138Z,78.12
2022-10-09T23:41:15.916Z,78.34
2022-10-09T23:43:45.341Z,77.94
2022-10-09T23:46:15.003Z,78.15
2022-10-09T23:48:43.998Z,78.36
2022-10-09T23:51:12.991Z,78.40
2022-10-09T23:53:42.346Z,78.57
2022-10-09T23:56:17.649Z,78.85
2022-10-09T23:58:45.929Z,78.72
